sensor_id;sensor_type;location;lat;lon;timestamp;P1;durP1;ratioP1;P2;durP2;ratioP2
54005;SDS011;39919;38.160;-122.260;2023-07-02T00:00:45;2.55;;;0.80;;
54005;SDS011;39919;38.160;-122.260;2023-07-02T00:03:17;1.85;;;0.77;;
54005;SDS011;39919;38.160;-122.260;2023-07-02T00:05:49;1.10;;;0.75;;
54005;SDS011;39919;38.160;-122.260;2023-07-02T00:08:22;2.20;;;0.93;;
54005;SDS011;39919;38.160;-122.260;2023-07-02T00:10:51;3.03;;;1.05;;
54005;SDS011;39919;38.160;-122.260;2023-07-02T00:13:20;2.50;;;1.10;;
54005;SDS011;39919;38.160;-122.260;2023-07-02T00:15:49;3.65;;;0.80;;
54005;SDS011;39919;38.160;-122.260;2023-07-02T00:18:18;2.97;;;0.80;;
54005;SDS011;39919;38.160;-122.260;2023-07-02T00:20:49;2.17;;;1.30;;
54005;SDS011;39919;38.160;-122.260;2023-07-02T00:23:18;3.00;;;1.40;;
54005;SDS011;39919;38.160;-122.260;2023-07-02T00:25:47;2.03;;;1.02;;
54005;SDS011;39919;38.160;-122.260;2023-07-02T00:28:19;2.38;;;0.73;;
54005;SDS011;39919;38.160;-122.260;2023-07-02T00:30:48;2.42;;;0.80;;
54005;SDS011;39919;38.160;-122.260;2023-07-02T00:33:17;3.75;;;1.10;;
54005;SDS011;39919;38.160;-122.260;2023-07-02T00:35:47;4.60;;;1.50;;
54005;SDS011;39919;38.160;-122.260;2023-07-02T00:38:17;2.25;;;1.05;;
54005;SDS011;39919;38.160;-122.260;2023-07-02T00:40:47;2.88;;;0.98;;
54005;SDS011;39919;38.160;-122.260;2023-07-02T00:43:16;2.17;;;1.23;;
54005;SDS011;39919;38.160;-122.260;2023-07-02T00:45:51;1.25;;;0.77;;
54005;SDS011;39919;38.160;-122.260;2023-07-02T00:48:23;2.00;;;0.95;;
54005;SDS011;39919;38.160;-122.260;2023-07-02T00:50:54;1.27;;;0.55;;
54005;SDS011;39919;38.160;-122.260;2023-07-02T00:53:23;2.38;;;0.70;;
54005;SDS011;39919;38.160;-122.260;2023-07-02T00:55:53;6.38;;;0.93;;
54005;SDS011;39919;38.160;-122.260;2023-07-02T00:58:22;1.08;;;0.85;;
54005;SDS011;39919;38.160;-122.260;2023-07-02T01:00:51;2.28;;;1.00;;
54005;SDS011;39919;38.160;-122.260;2023-07-02T01:03:22;1.50;;;0.90;;
54005;SDS011;39919;38.160;-122.260;2023-07-02T01:05:53;3.63;;;1.30;;
54005;SDS011;39919;38.160;-122.260;2023-07-02T01:08:29;2.97;;;0.88;;
54005;SDS011;39919;38.160;-122.260;2023-07-02T01:10:58;4.35;;;1.00;;
54005;SDS011;39919;38.160;-122.260;2023-07-02T01:13:33;2.90;;;1.02;;
54005;SDS011;39919;38.160;-122.260;2023-07-02T01:16:02;2.17;;;1.10;;
54005;SDS011;39919;38.160;-122.260;2023-07-02T01:18:32;1.52;;;0.90;;
54005;SDS011;39919;38.160;-122.260;2023-07-02T01:21:05;2.67;;;0.80;;
54005;SDS011;39919;38.160;-122.260;2023-07-02T01:23:34;2.53;;;1.00;;
54005;SDS011;39919;38.160;-122.260;2023-07-02T01:26:04;2.83;;;1.10;;
54005;SDS011;39919;38.160;-122.260;2023-07-02T01:28:36;7.85;;;1.48;;
54005;SDS011;39919;38.160;-122.260;2023-07-02T01:31:05;2.50;;;1.40;;
54005;SDS011;39919;38.160;-122.260;2023-07-02T01:33:34;4.05;;;1.92;;
54005;SDS011;39919;38.160;-122.260;2023-07-02T01:36:07;1.80;;;0.90;;
54005;SDS011;39919;38.160;-122.260;2023-07-02T01:38:37;2.63;;;0.82;;
54005;SDS011;39919;38.160;-122.260;2023-07-02T01:41:07;4.78;;;1.30;;
54005;SDS011;39919;38.160;-122.260;2023-07-02T01:43:36;5.43;;;1.33;;
54005;SDS011;39919;38.160;-122.260;2023-07-02T01:46:05;6.88;;;1.73;;
54005;SDS011;39919;38.160;-122.260;2023-07-02T01:48:34;2.28;;;1.25;;
54005;SDS011;39919;38.160;-122.260;2023-07-02T01:51:09;3.97;;;1.15;;
54005;SDS011;39919;38.160;-122.260;2023-07-02T01:53:41;2.58;;;1.20;;
54005;SDS011;39919;38.160;-122.260;2023-07-02T01:56:10;2.00;;;0.80;;
54005;SDS011;39919;38.160;-122.260;2023-07-02T01:58:39;2.08;;;1.25;;
54005;SDS011;39919;38.160;-122.260;2023-07-02T02:01:08;3.15;;;0.80;;
54005;SDS011;39919;38.160;-122.260;2023-07-02T02:03:37;1.77;;;0.82;;
54005;SDS011;39919;38.160;-122.260;2023-07-02T02:06:08;2.17;;;1.08;;
54005;SDS011;39919;38.160;-122.260;2023-07-02T02:08:37;5.45;;;1.50;;
54005;SDS011;39919;38.160;-122.260;2023-07-02T02:11:06;2.55;;;0.98;;
54005;SDS011;39919;38.160;-122.260;2023-07-02T02:13:35;5.03;;;1.40;;
54005;SDS011;39919;38.160;-122.260;2023-07-02T02:16:04;3.33;;;1.10;;
54005;SDS011;39919;38.160;-122.260;2023-07-02T02:18:33;4.55;;;1.90;;
54005;SDS011;39919;38.160;-122.260;2023-07-02T02:21:02;2.83;;;1.20;;
54005;SDS011;39919;38.160;-122.260;2023-07-02T02:23:33;4.07;;;1.67;;
54005;SDS011;39919;38.160;-122.260;2023-07-02T02:26:02;4.63;;;1.58;;
54005;SDS011;39919;38.160;-122.260;2023-07-02T02:28:34;3.47;;;1.63;;
54005;SDS011;39919;38.160;-122.260;2023-07-02T02:31:03;6.30;;;1.92;;
54005;SDS011;39919;38.160;-122.260;2023-07-02T02:33:34;6.32;;;2.00;;
54005;SDS011;39919;38.160;-122.260;2023-07-02T02:36:04;6.40;;;1.45;;
54005;SDS011;39919;38.160;-122.260;2023-07-02T02:38:35;12.07;;;1.88;;
54005;SDS011;39919;38.160;-122.260;2023-07-02T02:41:04;6.85;;;1.80;;
54005;SDS011;39919;38.160;-122.260;2023-07-02T02:43:34;5.47;;;1.45;;
54005;SDS011;39919;38.160;-122.260;2023-07-02T02:46:05;4.80;;;2.05;;
54005;SDS011;39919;38.160;-122.260;2023-07-02T02:48:37;4.00;;;1.95;;
54005;SDS011;39919;38.160;-122.260;2023-07-02T02:51:06;5.93;;;1.73;;
54005;SDS011;39919;38.160;-122.260;2023-07-02T02:53:38;5.55;;;1.70;;
54005;SDS011;39919;38.160;-122.260;2023-07-02T02:56:10;6.45;;;1.80;;
54005;SDS011;39919;38.160;-122.260;2023-07-02T02:58:39;5.70;;;1.73;;
54005;SDS011;39919;38.160;-122.260;2023-07-02T03:01:08;5.68;;;1.83;;
54005;SDS011;39919;38.160;-122.260;2023-07-02T03:03:38;5.35;;;2.40;;
54005;SDS011;39919;38.160;-122.260;2023-07-02T03:06:11;7.47;;;2.03;;
54005;SDS011;39919;38.160;-122.260;2023-07-02T03:08:45;6.93;;;1.77;;
54005;SDS011;39919;38.160;-122.260;2023-07-02T03:11:14;6.65;;;2.25;;
54005;SDS011;39919;38.160;-122.260;2023-07-02T03:13:43;7.10;;;1.75;;
54005;SDS011;39919;38.160;-122.260;2023-07-02T03:16:12;5.07;;;2.00;;
54005;SDS011;39919;38.160;-122.260;2023-07-02T03:18:42;7.55;;;1.95;;
54005;SDS011;39919;38.160;-122.260;2023-07-02T03:21:11;7.82;;;2.20;;
54005;SDS011;39919;38.160;-122.260;2023-07-02T03:23:40;8.07;;;2.72;;
54005;SDS011;39919;38.160;-122.260;2023-07-02T03:26:11;7.22;;;2.45;;
54005;SDS011;39919;38.160;-122.260;2023-07-02T03:28:45;8.00;;;2.20;;
54005;SDS011;39919;38.160;-122.260;2023-07-02T03:31:15;8.32;;;2.00;;
54005;SDS011;39919;38.160;-122.260;2023-07-02T03:33:44;5.60;;;1.63;;
54005;SDS011;39919;38.160;-122.260;2023-07-02T03:36:13;8.85;;;2.13;;
54005;SDS011;39919;38.160;-122.260;2023-07-02T03:38:42;7.82;;;2.40;;
54005;SDS011;39919;38.160;-122.260;2023-07-02T03:41:13;5.50;;;2.45;;
54005;SDS011;39919;38.160;-122.260;2023-07-02T03:43:42;6.28;;;2.35;;
54005;SDS011;39919;38.160;-122.260;2023-07-02T03:46:11;7.15;;;2.95;;
54005;SDS011;39919;38.160;-122.260;2023-07-02T03:48:40;3.40;;;1.77;;
54005;SDS011;39919;38.160;-122.260;2023-07-02T03:51:09;7.22;;;2.60;;
54005;SDS011;39919;38.160;-122.260;2023-07-02T03:53:40;10.60;;;2.45;;
54005;SDS011;39919;38.160;-122.260;2023-07-02T03:56:09;7.03;;;2.08;;
54005;SDS011;39919;38.160;-122.260;2023-07-02T03:58:41;7.82;;;2.10;;
54005;SDS011;39919;38.160;-122.260;2023-07-02T04:01:10;9.88;;;2.53;;
54005;SDS011;39919;38.160;-122.260;2023-07-02T04:03:47;10.98;;;3.00;;
54005;SDS011;39919;38.160;-122.260;2023-07-02T04:06:20;11.75;;;3.08;;
54005;SDS011;39919;38.160;-122.260;2023-07-02T04:08:49;8.07;;;1.98;;
54005;SDS011;39919;38.160;-122.260;2023-07-02T04:11:18;8.85;;;2.00;;
54005;SDS011;39919;38.160;-122.260;2023-07-02T04:13:49;11.60;;;2.17;;
54005;SDS011;39919;38.160;-122.260;2023-07-02T04:16:18;12.88;;;2.33;;
54005;SDS011;39919;38.160;-122.260;2023-07-02T04:18:47;10.43;;;2.83;;
54005;SDS011;39919;38.160;-122.260;2023-07-02T04:21:16;13.60;;;3.60;;
54005;SDS011;39919;38.160;-122.260;2023-07-02T04:23:45;11.95;;;3.53;;
54005;SDS011;39919;38.160;-122.260;2023-07-02T04:26:14;8.10;;;2.70;;
54005;SDS011;39919;38.160;-122.260;2023-07-02T04:28:43;11.18;;;3.65;;
54005;SDS011;39919;38.160;-122.260;2023-07-02T04:31:14;12.20;;;3.40;;
54005;SDS011;39919;38.160;-122.260;2023-07-02T04:33:43;10.63;;;2.47;;
54005;SDS011;39919;38.160;-122.260;2023-07-02T04:36:12;10.50;;;3.10;;
54005;SDS011;39919;38.160;-122.260;2023-07-02T04:38:41;9.65;;;3.03;;
54005;SDS011;39919;38.160;-122.260;2023-07-02T04:41:11;11.93;;;3.45;;
54005;SDS011;39919;38.160;-122.260;2023-07-02T04:43:40;8.32;;;2.50;;
54005;SDS011;39919;38.160;-122.260;2023-07-02T04:46:11;9.70;;;2.75;;
54005;SDS011;39919;38.160;-122.260;2023-07-02T04:48:41;12.10;;;3.15;;
54005;SDS011;39919;38.160;-122.260;2023-07-02T04:51:10;18.17;;;3.90;;
54005;SDS011;39919;38.160;-122.260;2023-07-02T04:53:39;8.50;;;2.80;;
54005;SDS011;39919;38.160;-122.260;2023-07-02T04:56:08;9.40;;;3.05;;
54005;SDS011;39919;38.160;-122.260;2023-07-02T04:58:38;9.57;;;3.03;;
54005;SDS011;39919;38.160;-122.260;2023-07-02T05:01:07;8.90;;;3.40;;
54005;SDS011;39919;38.160;-122.260;2023-07-02T05:03:36;10.50;;;3.20;;
54005;SDS011;39919;38.160;-122.260;2023-07-02T05:06:07;16.38;;;3.85;;
54005;SDS011;39919;38.160;-122.260;2023-07-02T05:08:37;9.77;;;2.78;;
54005;SDS011;39919;38.160;-122.260;2023-07-02T05:11:06;12.80;;;2.95;;
54005;SDS011;39919;38.160;-122.260;2023-07-02T05:13:35;7.80;;;2.33;;
54005;SDS011;39919;38.160;-122.260;2023-07-02T05:16:04;7.82;;;2.28;;
54005;SDS011;39919;38.160;-122.260;2023-07-02T05:21:19;7.32;;;2.10;;
54005;SDS011;39919;38.160;-122.260;2023-07-02T05:23:48;6.00;;;2.00;;
54005;SDS011;39919;38.160;-122.260;2023-07-02T05:26:17;7.88;;;2.10;;
54005;SDS011;39919;38.160;-122.260;2023-07-02T05:28:46;11.77;;;2.10;;
54005;SDS011;39919;38.160;-122.260;2023-07-02T05:31:15;5.95;;;2.28;;
54005;SDS011;39919;38.160;-122.260;2023-07-02T05:33:45;4.47;;;1.52;;
54005;SDS011;39919;38.160;-122.260;2023-07-02T05:36:14;8.55;;;1.92;;
54005;SDS011;39919;38.160;-122.260;2023-07-02T05:38:45;10.50;;;2.28;;
54005;SDS011;39919;38.160;-122.260;2023-07-02T05:41:18;8.77;;;1.73;;
54005;SDS011;39919;38.160;-122.260;2023-07-02T05:43:47;4.75;;;1.48;;
54005;SDS011;39919;38.160;-122.260;2023-07-02T05:46:16;8.52;;;2.40;;
54005;SDS011;39919;38.160;-122.260;2023-07-02T05:48:45;9.77;;;1.90;;
54005;SDS011;39919;38.160;-122.260;2023-07-02T05:51:14;9.02;;;1.92;;
54005;SDS011;39919;38.160;-122.260;2023-07-02T05:53:51;8.48;;;2.35;;
54005;SDS011;39919;38.160;-122.260;2023-07-02T05:56:20;8.80;;;2.33;;
54005;SDS011;39919;38.160;-122.260;2023-07-02T05:58:49;7.03;;;2.33;;
54005;SDS011;39919;38.160;-122.260;2023-07-02T06:01:18;13.00;;;2.58;;
54005;SDS011;39919;38.160;-122.260;2023-07-02T06:03:49;8.07;;;2.70;;
54005;SDS011;39919;38.160;-122.260;2023-07-02T06:06:18;6.85;;;2.15;;
54005;SDS011;39919;38.160;-122.260;2023-07-02T06:08:51;6.95;;;2.28;;
54005;SDS011;39919;38.160;-122.260;2023-07-02T06:11:20;4.05;;;1.70;;
54005;SDS011;39919;38.160;-122.260;2023-07-02T06:13:50;5.95;;;2.25;;
54005;SDS011;39919;38.160;-122.260;2023-07-02T06:16:22;4.72;;;1.60;;
54005;SDS011;39919;38.160;-122.260;2023-07-02T06:18:51;5.20;;;1.48;;
54005;SDS011;39919;38.160;-122.260;2023-07-02T06:21:20;6.35;;;1.98;;
54005;SDS011;39919;38.160;-122.260;2023-07-02T06:23:49;6.93;;;2.10;;
54005;SDS011;39919;38.160;-122.260;2023-07-02T06:26:19;6.80;;;1.40;;
54005;SDS011;39919;38.160;-122.260;2023-07-02T06:28:48;6.05;;;1.88;;
54005;SDS011;39919;38.160;-122.260;2023-07-02T06:31:17;5.93;;;1.48;;
54005;SDS011;39919;38.160;-122.260;2023-07-02T06:33:47;3.80;;;1.20;;
54005;SDS011;39919;38.160;-122.260;2023-07-02T06:36:16;6.72;;;1.50;;
54005;SDS011;39919;38.160;-122.260;2023-07-02T06:38:45;5.65;;;1.92;;
54005;SDS011;39919;38.160;-122.260;2023-07-02T06:41:16;6.78;;;1.60;;
54005;SDS011;39919;38.160;-122.260;2023-07-02T06:43:45;3.45;;;1.08;;
54005;SDS011;39919;38.160;-122.260;2023-07-02T06:46:14;7.18;;;2.05;;
54005;SDS011;39919;38.160;-122.260;2023-07-02T06:48:43;6.63;;;2.13;;
54005;SDS011;39919;38.160;-122.260;2023-07-02T06:51:15;4.30;;;1.33;;
54005;SDS011;39919;38.160;-122.260;2023-07-02T06:53:44;5.75;;;1.35;;
54005;SDS011;39919;38.160;-122.260;2023-07-02T06:56:14;4.40;;;1.60;;
54005;SDS011;39919;38.160;-122.260;2023-07-02T06:58:44;5.07;;;1.30;;
54005;SDS011;39919;38.160;-122.260;2023-07-02T07:01:14;4.75;;;1.75;;
54005;SDS011;39919;38.160;-122.260;2023-07-02T07:03:46;5.55;;;1.67;;
54005;SDS011;39919;38.160;-122.260;2023-07-02T07:06:15;6.65;;;1.67;;
54005;SDS011;39919;38.160;-122.260;2023-07-02T07:08:44;4.95;;;1.40;;
54005;SDS011;39919;38.160;-122.260;2023-07-02T07:11:13;6.55;;;1.42;;
54005;SDS011;39919;38.160;-122.260;2023-07-02T07:13:44;7.32;;;1.98;;
54005;SDS011;39919;38.160;-122.260;2023-07-02T07:16:13;4.15;;;1.20;;
54005;SDS011;39919;38.160;-122.260;2023-07-02T07:18:43;6.15;;;1.65;;
54005;SDS011;39919;38.160;-122.260;2023-07-02T07:21:13;2.20;;;1.00;;
54005;SDS011;39919;38.160;-122.260;2023-07-02T07:23:42;3.65;;;1.20;;
54005;SDS011;39919;38.160;-122.260;2023-07-02T07:26:11;3.53;;;0.90;;
54005;SDS011;39919;38.160;-122.260;2023-07-02T07:28:40;5.55;;;1.50;;
54005;SDS011;39919;38.160;-122.260;2023-07-02T07:31:11;5.72;;;1.45;;
54005;SDS011;39919;38.160;-122.260;2023-07-02T07:33:40;5.10;;;1.33;;
54005;SDS011;39919;38.160;-122.260;2023-07-02T07:36:09;4.22;;;1.58;;
54005;SDS011;39919;38.160;-122.260;2023-07-02T07:38:38;8.63;;;1.67;;
54005;SDS011;39919;38.160;-122.260;2023-07-02T07:41:07;4.45;;;1.05;;
54005;SDS011;39919;38.160;-122.260;2023-07-02T07:43:37;3.95;;;1.15;;
54005;SDS011;39919;38.160;-122.260;2023-07-02T07:46:07;6.28;;;1.35;;
54005;SDS011;39919;38.160;-122.260;2023-07-02T07:48:36;5.40;;;1.60;;
54005;SDS011;39919;38.160;-122.260;2023-07-02T07:51:05;5.60;;;1.58;;
54005;SDS011;39919;38.160;-122.260;2023-07-02T07:53:37;6.47;;;1.30;;
54005;SDS011;39919;38.160;-122.260;2023-07-02T07:56:06;6.78;;;1.90;;
54005;SDS011;39919;38.160;-122.260;2023-07-02T07:58:35;4.13;;;1.52;;
54005;SDS011;39919;38.160;-122.260;2023-07-02T08:01:04;4.00;;;1.63;;
54005;SDS011;39919;38.160;-122.260;2023-07-02T08:03:38;8.65;;;1.95;;
54005;SDS011;39919;38.160;-122.260;2023-07-02T08:06:09;4.20;;;1.20;;
54005;SDS011;39919;38.160;-122.260;2023-07-02T08:08:38;3.92;;;1.00;;
54005;SDS011;39919;38.160;-122.260;2023-07-02T08:11:12;3.80;;;1.80;;
54005;SDS011;39919;38.160;-122.260;2023-07-02T08:13:41;4.15;;;0.90;;
54005;SDS011;39919;38.160;-122.260;2023-07-02T08:16:12;3.67;;;1.15;;
54005;SDS011;39919;38.160;-122.260;2023-07-02T08:18:42;4.68;;;0.88;;
54005;SDS011;39919;38.160;-122.260;2023-07-02T08:21:11;4.28;;;0.70;;
54005;SDS011;39919;38.160;-122.260;2023-07-02T08:23:42;4.28;;;0.90;;
54005;SDS011;39919;38.160;-122.260;2023-07-02T08:26:11;1.52;;;0.77;;
54005;SDS011;39919;38.160;-122.260;2023-07-02T08:28:40;2.05;;;0.65;;
54005;SDS011;39919;38.160;-122.260;2023-07-02T08:31:09;4.25;;;1.02;;
54005;SDS011;39919;38.160;-122.260;2023-07-02T08:33:41;6.78;;;1.05;;
54005;SDS011;39919;38.160;-122.260;2023-07-02T08:36:10;6.70;;;0.68;;
54005;SDS011;39919;38.160;-122.260;2023-07-02T08:38:39;3.38;;;0.95;;
54005;SDS011;39919;38.160;-122.260;2023-07-02T08:41:09;2.30;;;0.85;;
54005;SDS011;39919;38.160;-122.260;2023-07-02T08:43:38;4.55;;;1.40;;
54005;SDS011;39919;38.160;-122.260;2023-07-02T08:46:08;7.85;;;1.65;;
54005;SDS011;39919;38.160;-122.260;2023-07-02T08:48:39;5.63;;;1.60;;
54005;SDS011;39919;38.160;-122.260;2023-07-02T08:51:09;5.05;;;1.45;;
54005;SDS011;39919;38.160;-122.260;2023-07-02T08:53:38;2.92;;;1.35;;
54005;SDS011;39919;38.160;-122.260;2023-07-02T08:56:07;4.22;;;1.30;;
54005;SDS011;39919;38.160;-122.260;2023-07-02T08:58:39;2.22;;;0.77;;
54005;SDS011;39919;38.160;-122.260;2023-07-02T09:01:08;8.00;;;2.03;;
54005;SDS011;39919;38.160;-122.260;2023-07-02T09:03:40;3.55;;;1.83;;
54005;SDS011;39919;38.160;-122.260;2023-07-02T09:06:09;5.32;;;1.70;;
54005;SDS011;39919;38.160;-122.260;2023-07-02T09:08:39;6.03;;;1.67;;
54005;SDS011;39919;38.160;-122.260;2023-07-02T09:11:08;5.05;;;1.70;;
54005;SDS011;39919;38.160;-122.260;2023-07-02T09:13:46;6.57;;;2.00;;
54005;SDS011;39919;38.160;-122.260;2023-07-02T09:16:26;3.95;;;1.52;;
54005;SDS011;39919;38.160;-122.260;2023-07-02T09:19:01;5.68;;;1.13;;
54005;SDS011;39919;38.160;-122.260;2023-07-02T09:21:41;3.55;;;1.15;;
54005;SDS011;39919;38.160;-122.260;2023-07-02T09:24:12;6.40;;;1.45;;
54005;SDS011;39919;38.160;-122.260;2023-07-02T09:26:42;3.97;;;1.45;;
54005;SDS011;39919;38.160;-122.260;2023-07-02T09:29:12;3.85;;;1.40;;
54005;SDS011;39919;38.160;-122.260;2023-07-02T09:31:44;6.50;;;1.45;;
54005;SDS011;39919;38.160;-122.260;2023-07-02T09:34:16;4.88;;;1.77;;
54005;SDS011;39919;38.160;-122.260;2023-07-02T09:36:45;3.47;;;1.40;;
54005;SDS011;39919;38.160;-122.260;2023-07-02T09:39:19;4.97;;;1.60;;
54005;SDS011;39919;38.160;-122.260;2023-07-02T09:41:54;6.53;;;2.20;;
54005;SDS011;39919;38.160;-122.260;2023-07-02T09:44:28;4.70;;;1.25;;
54005;SDS011;39919;38.160;-122.260;2023-07-02T09:47:01;9.13;;;1.80;;
54005;SDS011;39919;38.160;-122.260;2023-07-02T09:49:33;4.50;;;2.13;;
54005;SDS011;39919;38.160;-122.260;2023-07-02T09:52:13;2.40;;;1.05;;
54005;SDS011;39919;38.160;-122.260;2023-07-02T09:54:42;2.92;;;1.10;;
54005;SDS011;39919;38.160;-122.260;2023-07-02T09:57:12;6.22;;;1.90;;
54005;SDS011;39919;38.160;-122.260;2023-07-02T09:59:54;3.80;;;1.30;;
54005;SDS011;39919;38.160;-122.260;2023-07-02T10:02:23;7.60;;;2.00;;
54005;SDS011;39919;38.160;-122.260;2023-07-02T10:04:57;4.68;;;1.50;;
54005;SDS011;39919;38.160;-122.260;2023-07-02T10:07:27;6.80;;;1.83;;
54005;SDS011;39919;38.160;-122.260;2023-07-02T10:09:57;5.80;;;1.98;;
54005;SDS011;39919;38.160;-122.260;2023-07-02T10:12:32;9.73;;;2.08;;
54005;SDS011;39919;38.160;-122.260;2023-07-02T10:15:01;5.95;;;2.10;;
54005;SDS011;39919;38.160;-122.260;2023-07-02T10:17:30;5.47;;;2.58;;
54005;SDS011;39919;38.160;-122.260;2023-07-02T10:20:02;7.55;;;2.40;;
54005;SDS011;39919;38.160;-122.260;2023-07-02T10:22:42;5.22;;;1.75;;
54005;SDS011;39919;38.160;-122.260;2023-07-02T10:27:39;5.47;;;1.88;;
54005;SDS011;39919;38.160;-122.260;2023-07-02T10:30:10;4.72;;;1.77;;
54005;SDS011;39919;38.160;-122.260;2023-07-02T10:32:42;5.13;;;1.80;;
54005;SDS011;39919;38.160;-122.260;2023-07-02T10:35:17;5.97;;;2.30;;
54005;SDS011;39919;38.160;-122.260;2023-07-02T10:37:46;5.72;;;1.98;;
54005;SDS011;39919;38.160;-122.260;2023-07-02T10:40:15;28.52;;;12.20;;
54005;SDS011;39919;38.160;-122.260;2023-07-02T10:42:46;38.28;;;16.02;;
54005;SDS011;39919;38.160;-122.260;2023-07-02T10:45:16;32.00;;;13.82;;
54005;SDS011;39919;38.160;-122.260;2023-07-02T10:47:45;23.73;;;9.32;;
54005;SDS011;39919;38.160;-122.260;2023-07-02T10:50:17;26.95;;;11.65;;
54005;SDS011;39919;38.160;-122.260;2023-07-02T10:52:47;25.35;;;9.75;;
54005;SDS011;39919;38.160;-122.260;2023-07-02T10:55:17;19.38;;;6.72;;
54005;SDS011;39919;38.160;-122.260;2023-07-02T10:57:49;22.33;;;7.75;;
54005;SDS011;39919;38.160;-122.260;2023-07-02T11:00:32;18.52;;;6.55;;
54005;SDS011;39919;38.160;-122.260;2023-07-02T11:03:16;17.05;;;5.72;;
54005;SDS011;39919;38.160;-122.260;2023-07-02T11:05:48;11.20;;;4.82;;
54005;SDS011;39919;38.160;-122.260;2023-07-02T11:08:17;7.63;;;2.85;;
54005;SDS011;39919;38.160;-122.260;2023-07-02T11:10:47;7.75;;;3.22;;
54005;SDS011;39919;38.160;-122.260;2023-07-02T11:13:16;8.80;;;3.03;;
54005;SDS011;39919;38.160;-122.260;2023-07-02T11:15:47;5.88;;;2.33;;
54005;SDS011;39919;38.160;-122.260;2023-07-02T11:18:16;7.93;;;2.42;;
54005;SDS011;39919;38.160;-122.260;2023-07-02T11:20:48;7.30;;;1.98;;
54005;SDS011;39919;38.160;-122.260;2023-07-02T11:23:18;5.13;;;1.92;;
54005;SDS011;39919;38.160;-122.260;2023-07-02T11:25:56;9.77;;;2.72;;
54005;SDS011;39919;38.160;-122.260;2023-07-02T11:28:28;9.55;;;2.10;;
54005;SDS011;39919;38.160;-122.260;2023-07-02T11:31:00;8.90;;;2.47;;
54005;SDS011;39919;38.160;-122.260;2023-07-02T11:33:34;4.47;;;1.65;;
54005;SDS011;39919;38.160;-122.260;2023-07-02T11:36:06;5.50;;;2.33;;
54005;SDS011;39919;38.160;-122.260;2023-07-02T11:38:50;5.57;;;1.90;;
54005;SDS011;39919;38.160;-122.260;2023-07-02T11:41:20;6.90;;;1.95;;
54005;SDS011;39919;38.160;-122.260;2023-07-02T11:43:49;6.30;;;2.28;;
54005;SDS011;39919;38.160;-122.260;2023-07-02T11:46:18;6.75;;;2.90;;
54005;SDS011;39919;38.160;-122.260;2023-07-02T11:48:49;6.85;;;2.85;;
54005;SDS011;39919;38.160;-122.260;2023-07-02T11:51:22;8.73;;;2.25;;
54005;SDS011;39919;38.160;-122.260;2023-07-02T11:53:51;4.25;;;1.48;;
54005;SDS011;39919;38.160;-122.260;2023-07-02T11:56:22;3.72;;;1.42;;
54005;SDS011;39919;38.160;-122.260;2023-07-02T11:58:51;2.67;;;0.90;;
54005;SDS011;39919;38.160;-122.260;2023-07-02T12:01:20;7.03;;;1.58;;
54005;SDS011;39919;38.160;-122.260;2023-07-02T12:03:49;4.40;;;1.55;;
54005;SDS011;39919;38.160;-122.260;2023-07-02T12:06:18;3.28;;;1.58;;
54005;SDS011;39919;38.160;-122.260;2023-07-02T12:08:48;3.35;;;1.40;;
54005;SDS011;39919;38.160;-122.260;2023-07-02T12:11:17;5.38;;;2.22;;
54005;SDS011;39919;38.160;-122.260;2023-07-02T12:13:45;4.97;;;2.05;;
54005;SDS011;39919;38.160;-122.260;2023-07-02T12:16:21;6.72;;;2.40;;
54005;SDS011;39919;38.160;-122.260;2023-07-02T12:18:49;5.60;;;1.88;;
54005;SDS011;39919;38.160;-122.260;2023-07-02T12:21:18;5.78;;;2.10;;
54005;SDS011;39919;38.160;-122.260;2023-07-02T12:23:48;5.55;;;1.98;;
54005;SDS011;39919;38.160;-122.260;2023-07-02T12:26:17;6.55;;;1.27;;
54005;SDS011;39919;38.160;-122.260;2023-07-02T12:28:46;4.22;;;1.67;;
54005;SDS011;39919;38.160;-122.260;2023-07-02T12:31:15;7.95;;;1.65;;
54005;SDS011;39919;38.160;-122.260;2023-07-02T12:33:43;7.07;;;1.42;;
54005;SDS011;39919;38.160;-122.260;2023-07-02T12:36:12;5.47;;;2.08;;
54005;SDS011;39919;38.160;-122.260;2023-07-02T12:38:41;4.78;;;1.63;;
54005;SDS011;39919;38.160;-122.260;2023-07-02T12:41:11;4.90;;;1.50;;
54005;SDS011;39919;38.160;-122.260;2023-07-02T12:43:40;4.97;;;2.78;;
54005;SDS011;39919;38.160;-122.260;2023-07-02T12:46:09;5.50;;;1.77;;
54005;SDS011;39919;38.160;-122.260;2023-07-02T12:48:38;6.20;;;1.70;;
54005;SDS011;39919;38.160;-122.260;2023-07-02T12:51:06;6.82;;;2.33;;
54005;SDS011;39919;38.160;-122.260;2023-07-02T12:53:35;8.57;;;2.00;;
54005;SDS011;39919;38.160;-122.260;2023-07-02T12:56:04;3.40;;;1.63;;
54005;SDS011;39919;38.160;-122.260;2023-07-02T12:58:35;6.88;;;1.63;;
54005;SDS011;39919;38.160;-122.260;2023-07-02T13:01:03;5.40;;;1.98;;
54005;SDS011;39919;38.160;-122.260;2023-07-02T13:03:32;5.53;;;1.80;;
54005;SDS011;39919;38.160;-122.260;2023-07-02T13:06:01;4.13;;;1.13;;
54005;SDS011;39919;38.160;-122.260;2023-07-02T13:08:30;2.65;;;0.73;;
54005;SDS011;39919;38.160;-122.260;2023-07-02T13:10:59;2.65;;;0.98;;
54005;SDS011;39919;38.160;-122.260;2023-07-02T13:13:27;2.78;;;1.40;;
54005;SDS011;39919;38.160;-122.260;2023-07-02T13:15:58;5.50;;;1.90;;
54005;SDS011;39919;38.160;-122.260;2023-07-02T13:18:29;6.35;;;2.08;;
54005;SDS011;39919;38.160;-122.260;2023-07-02T13:20:57;5.22;;;1.88;;
54005;SDS011;39919;38.160;-122.260;2023-07-02T13:23:26;5.90;;;1.27;;
54005;SDS011;39919;38.160;-122.260;2023-07-02T13:25:55;4.75;;;1.35;;
54005;SDS011;39919;38.160;-122.260;2023-07-02T13:28:24;5.43;;;1.65;;
54005;SDS011;39919;38.160;-122.260;2023-07-02T13:30:53;4.20;;;1.88;;
54005;SDS011;39919;38.160;-122.260;2023-07-02T13:33:24;4.40;;;2.17;;
54005;SDS011;39919;38.160;-122.260;2023-07-02T13:35:54;6.03;;;1.98;;
54005;SDS011;39919;38.160;-122.260;2023-07-02T13:38:23;9.02;;;2.55;;
54005;SDS011;39919;38.160;-122.260;2023-07-02T13:40:52;5.25;;;2.00;;
54005;SDS011;39919;38.160;-122.260;2023-07-02T13:43:21;4.57;;;2.22;;
54005;SDS011;39919;38.160;-122.260;2023-07-02T13:45:52;5.85;;;1.85;;
54005;SDS011;39919;38.160;-122.260;2023-07-02T13:48:21;6.68;;;1.63;;
54005;SDS011;39919;38.160;-122.260;2023-07-02T13:50:51;7.50;;;1.60;;
54005;SDS011;39919;38.160;-122.260;2023-07-02T13:53:26;5.25;;;1.60;;
54005;SDS011;39919;38.160;-122.260;2023-07-02T13:55:54;3.22;;;1.10;;
54005;SDS011;39919;38.160;-122.260;2023-07-02T13:58:25;3.58;;;0.85;;
54005;SDS011;39919;38.160;-122.260;2023-07-02T14:00:56;5.07;;;1.73;;
54005;SDS011;39919;38.160;-122.260;2023-07-02T14:03:25;3.72;;;1.20;;
54005;SDS011;39919;38.160;-122.260;2023-07-02T14:05:54;2.83;;;1.60;;
54005;SDS011;39919;38.160;-122.260;2023-07-02T14:08:23;6.57;;;1.60;;
54005;SDS011;39919;38.160;-122.260;2023-07-02T14:10:52;4.38;;;2.35;;
54005;SDS011;39919;38.160;-122.260;2023-07-02T14:13:21;5.10;;;1.38;;
54005;SDS011;39919;38.160;-122.260;2023-07-02T14:15:50;2.78;;;1.27;;
54005;SDS011;39919;38.160;-122.260;2023-07-02T14:18:20;3.40;;;1.35;;
54005;SDS011;39919;38.160;-122.260;2023-07-02T14:20:49;5.55;;;1.40;;
54005;SDS011;39919;38.160;-122.260;2023-07-02T14:23:18;3.90;;;1.52;;
54005;SDS011;39919;38.160;-122.260;2023-07-02T14:25:46;4.63;;;1.70;;
54005;SDS011;39919;38.160;-122.260;2023-07-02T14:28:15;6.05;;;1.55;;
54005;SDS011;39919;38.160;-122.260;2023-07-02T14:30:46;5.60;;;2.28;;